Time;durP1;ratioP1;P1;durP2;ratioP2;P2;SDS_P1;SDS_P2;PMS_P1;PMS_P2;Temp;Humidity;BMP_temperature;BMP_pressure;BME280_temperature;BME280_humidity;BME280_pressure;Samples;Min_cycle;Max_cycle;Signal;HPM_P1;HPM_P2
2023/12/04 00:01:53;;;;;;;10.13;8.77;;;23.50;67.40;;;;;;6222448;28;89258;-61
2023/12/04 00:04:55;;;;;;;11.23;8.50;;;23.50;67.50;;;;;;6224980;28;89073;-61
2023/12/04 00:07:57;;;;;;;10.15;8.52;;;23.50;67.60;;;;;;6212926;28;89056;-60
2023/12/04 00:11:01;;;;;;;11.52;9.15;;;23.50;67.70;;;;;;6226841;28;89154;-61
2023/12/04 00:14:03;;;;;;;10.00;8.18;;;23.50;67.70;;;;;;6227681;28;89173;-61
2023/12/04 00:17:06;;;;;;;9.55;8.25;;;23.60;69.70;;;;;;6208015;28;89042;-61
2023/12/04 00:20:09;;;;;;;9.68;8.15;;;23.60;68.30;;;;;;6214044;28;88379;-61
2023/12/04 00:23:11;;;;;;;9.70;8.35;;;23.60;69.40;;;;;;6221217;28;89018;-61
2023/12/04 00:26:14;;;;;;;9.95;8.30;;;23.60;68.10;;;;;;6224598;28;88914;-61
2023/12/04 00:29:16;;;;;;;11.68;8.50;;;23.60;67.80;;;;;;6219262;28;90190;-61
2023/12/04 00:32:19;;;;;;;9.13;8.10;;;23.60;67.70;;;;;;6219215;28;88980;-61
2023/12/04 00:35:21;;;;;;;11.02;8.18;;;23.60;67.60;;;;;;6208661;28;89039;-61
2023/12/04 00:38:23;;;;;;;9.80;8.10;;;23.80;67.70;;;;;;6221622;28;89019;-61
2023/12/04 00:41:25;;;;;;;10.27;8.27;;;23.70;68.00;;;;;;6207593;28;89150;-60
2023/12/04 00:44:27;;;;;;;13.25;9.00;;;23.70;67.80;;;;;;6219344;28;89486;-61
2023/12/04 00:47:31;;;;;;;8.73;7.80;;;23.70;67.70;;;;;;6209412;28;89026;-61
2023/12/04 00:50:33;;;;;;;9.07;8.00;;;23.60;67.70;;;;;;6220094;28;88198;-61
2023/12/04 00:53:35;;;;;;;8.57;7.72;;;23.70;67.70;;;;;;6224571;28;89188;-61
2023/12/04 00:56:39;;;;;;;9.00;8.05;;;23.70;67.70;;;;;;6213415;28;89091;-61
2023/12/04 00:59:41;;;;;;;9.15;8.20;;;23.70;67.70;;;;;;6228569;28;91949;-60
2023/12/04 01:02:45;;;;;;;9.73;8.55;;;23.70;67.90;;;;;;6220612;28;89136;-60
2023/12/04 01:05:47;;;;;;;11.63;9.18;;;23.70;68.10;;;;;;6214756;28;89179;-61
2023/12/04 01:08:49;;;;;;;12.88;9.98;;;23.70;68.90;;;;;;6209975;28;89064;-61
2023/12/04 01:11:51;;;;;;;12.55;9.93;;;23.90;68.70;;;;;;6214638;28;89174;-61
2023/12/04 01:14:53;;;;;;;11.07;9.98;;;24.30;67.60;;;;;;6220846;28;89117;-61
2023/12/04 01:17:56;;;;;;;10.25;9.27;;;24.50;66.60;;;;;;6217640;28;88993;-61
2023/12/04 01:20:59;;;;;;;11.40;9.23;;;24.60;66.00;;;;;;6216913;28;88273;-60
2023/12/04 01:24:01;;;;;;;11.82;9.50;;;24.70;65.70;;;;;;6224975;28;89108;-62
2023/12/04 01:27:03;;;;;;;248.60;116.90;;;24.60;66.40;;;;;;6208027;28;89529;-61
2023/12/04 01:30:07;;;;;;;96.28;48.55;;;24.50;70.90;;;;;;6218532;28;90234;-61
2023/12/04 01:33:11;;;;;;;55.53;28.27;;;24.40;70.80;;;;;;6218903;28;88866;-61
2023/12/04 01:36:13;;;;;;;42.53;21.98;;;24.30;68.80;;;;;;6208932;28;89079;-61
2023/12/04 01:39:15;;;;;;;39.60;18.60;;;24.20;65.30;;;;;;6210695;28;89469;-62
2023/12/04 01:42:17;;;;;;;25.20;15.70;;;24.10;66.80;;;;;;6206100;28;89071;-63
2023/12/04 01:45:19;;;;;;;25.83;14.27;;;24.10;65.90;;;;;;6216855;28;89260;-63
2023/12/04 01:48:23;;;;;;;20.90;14.10;;;24.00;67.90;;;;;;6209317;28;89093;-64
2023/12/04 01:51:27;;;;;;;18.90;13.38;;;24.00;67.10;;;;;;6222009;28;88705;-65
2023/12/04 01:54:30;;;;;;;24.98;13.90;;;24.00;64.00;;;;;;6224190;28;89159;-63
2023/12/04 01:57:32;;;;;;;25.42;14.98;;;23.90;64.90;;;;;;6218654;28;89133;-64
2023/12/04 02:00:37;;;;;;;19.23;12.32;;;23.90;65.90;;;;;;6227406;28;90144;-64
2023/12/04 02:03:42;;;;;;;22.05;13.32;;;23.80;63.20;;;;;;6216761;28;89193;-64
2023/12/04 02:06:44;;;;;;;17.73;12.15;;;23.80;65.00;;;;;;6214539;28;89142;-61
2023/12/04 02:09:46;;;;;;;16.92;11.70;;;23.80;62.80;;;;;;6218443;28;89119;-61
2023/12/04 02:12:48;;;;;;;14.80;11.23;;;23.70;62.30;;;;;;6222103;28;87777;-61
2023/12/04 02:15:52;;;;;;;17.42;11.80;;;23.70;62.20;;;;;;6222984;28;89211;-61
2023/12/04 02:18:56;;;;;;;16.50;12.13;;;23.70;61.90;;;;;;6216991;28;89261;-61
2023/12/04 02:21:57;;;;;;;14.40;10.57;;;23.60;61.10;;;;;;6219398;28;88496;-61
2023/12/04 02:25:01;;;;;;;12.88;10.35;;;23.60;61.10;;;;;;6225921;28;89084;-61
2023/12/04 02:28:07;;;;;;;18.65;12.65;;;23.60;60.60;;;;;;6224403;28;89134;-61
2023/12/04 02:31:09;;;;;;;14.50;10.65;;;23.60;60.40;;;;;;6219415;28;90116;-61
2023/12/04 02:34:13;;;;;;;13.38;10.63;;;23.50;61.00;;;;;;6221039;28;89159;-61
2023/12/04 02:37:17;;;;;;;11.63;10.10;;;23.50;60.10;;;;;;6214350;28;89069;-61
2023/12/04 02:40:21;;;;;;;14.40;10.00;;;23.50;60.50;;;;;;6225007;28;89070;-62
2023/12/04 02:43:23;;;;;;;12.70;9.60;;;23.40;59.90;;;;;;6218728;28;89055;-62
2023/12/04 02:46:25;;;;;;;12.75;9.50;;;23.50;60.60;;;;;;6227555;28;87978;-61
2023/12/04 02:49:27;;;;;;;12.38;9.10;;;23.50;61.00;;;;;;6221504;28;89061;-62
2023/12/04 02:52:29;;;;;;;11.48;8.88;;;23.60;61.50;;;;;;6224868;28;88368;-61
2023/12/04 02:55:32;;;;;;;11.18;9.48;;;23.50;61.70;;;;;;6222630;28;89164;-61
2023/12/04 02:58:35;;;;;;;10.63;8.45;;;23.60;62.10;;;;;;6218753;28;89298;-61
2023/12/04 03:01:36;;;;;;;12.32;8.77;;;23.60;62.30;;;;;;6226099;28;90032;-61
2023/12/04 03:04:38;;;;;;;10.98;8.55;;;23.60;62.50;;;;;;6222643;28;88465;-61
2023/12/04 03:07:40;;;;;;;9.90;8.13;;;23.60;62.70;;;;;;6224948;28;89052;-62
2023/12/04 03:10:44;;;;;;;8.85;7.95;;;23.60;62.90;;;;;;6228145;28;89057;-62
2023/12/04 03:13:46;;;;;;;10.68;8.13;;;23.60;63.10;;;;;;6229427;28;89098;-63
2023/12/04 03:16:48;;;;;;;8.80;7.70;;;23.60;63.70;;;;;;6211354;28;89258;-63
2023/12/04 03:19:50;;;;;;;8.98;7.53;;;23.60;63.80;;;;;;6220304;28;89114;-63
2023/12/04 03:22:51;;;;;;;10.52;8.40;;;23.60;63.80;;;;;;6219504;28;88629;-63
2023/12/04 03:25:55;;;;;;;9.02;7.70;;;23.60;63.70;;;;;;6209956;28;87961;-63
2023/12/04 03:28:57;;;;;;;9.15;7.72;;;23.60;64.00;;;;;;6227465;28;89058;-63
2023/12/04 03:31:59;;;;;;;11.55;8.23;;;23.60;64.30;;;;;;6208276;28;90163;-62
2023/12/04 03:35:01;;;;;;;9.35;7.53;;;23.60;64.50;;;;;;6229727;28;89056;-63
2023/12/04 03:38:03;;;;;;;8.45;7.40;;;23.60;64.50;;;;;;6213797;28;87953;-62
2023/12/04 03:41:14;;;;;;;9.85;7.65;;;23.60;64.10;;;;;;6224231;28;89062;-62
2023/12/04 03:44:15;;;;;;;7.40;6.57;;;23.60;64.10;;;;;;6214404;28;89200;-63
2023/12/04 03:47:17;;;;;;;8.43;7.03;;;23.60;64.40;;;;;;6222069;28;89085;-63
2023/12/04 03:50:20;;;;;;;7.97;6.78;;;23.60;64.40;;;;;;6215924;28;89033;-63
2023/12/04 03:53:22;;;;;;;7.95;7.07;;;23.60;64.40;;;;;;6216732;28;88484;-62
2023/12/04 03:56:25;;;;;;;8.95;7.05;;;23.60;64.40;;;;;;6222516;28;89219;-63
2023/12/04 03:59:27;;;;;;;7.32;6.63;;;23.60;64.40;;;;;;6228863;28;89035;-62
2023/12/04 04:02:29;;;;;;;7.07;6.38;;;23.60;64.30;;;;;;6219441;28;89953;-62
2023/12/04 04:05:34;;;;;;;8.38;6.97;;;23.60;64.40;;;;;;6211275;28;89096;-62
2023/12/04 04:08:35;;;;;;;7.90;6.63;;;23.60;64.30;;;;;;6214664;28;89204;-63
2023/12/04 04:11:39;;;;;;;7.47;6.63;;;23.60;64.30;;;;;;6220629;28;89026;-62
2023/12/04 04:14:41;;;;;;;7.07;6.38;;;23.70;64.40;;;;;;6222592;28;89527;-62
2023/12/04 04:17:43;;;;;;;7.10;6.30;;;23.70;64.40;;;;;;6245477;28;89111;-62
2023/12/04 04:20:45;;;;;;;7.65;6.30;;;23.70;64.40;;;;;;6223864;28;87978;-64
2023/12/04 04:23:46;;;;;;;10.82;7.05;;;23.70;64.40;;;;;;6228688;28;88521;-63
2023/12/04 04:26:50;;;;;;;7.53;6.60;;;23.70;64.40;;;;;;6242039;28;88319;-63
2023/12/04 04:29:52;;;;;;;6.93;6.22;;;23.70;64.30;;;;;;6222822;28;89216;-63
2023/12/04 04:32:54;;;;;;;7.88;6.47;;;23.70;64.30;;;;;;6225275;28;90108;-63
2023/12/04 04:35:56;;;;;;;6.25;5.65;;;23.70;64.30;;;;;;6225210;28;88256;-63
2023/12/04 04:38:58;;;;;;;6.78;6.10;;;23.70;64.30;;;;;;6221403;28;89151;-62
2023/12/04 04:42:01;;;;;;;6.63;6.00;;;23.70;64.20;;;;;;6221983;28;89290;-63
2023/12/04 04:45:04;;;;;;;6.32;5.68;;;23.80;64.20;;;;;;6217715;28;89050;-63
2023/12/04 04:48:06;;;;;;;6.43;5.70;;;23.80;64.20;;;;;;6229340;28;89053;-63
2023/12/04 04:51:08;;;;;;;7.25;6.30;;;23.80;64.20;;;;;;6214101;28;87882;-63
2023/12/04 04:54:10;;;;;;;6.70;6.00;;;23.80;64.20;;;;;;6222194;28;88373;-63
2023/12/04 04:57:14;;;;;;;8.32;6.05;;;23.80;64.10;;;;;;6216863;28;89140;-63
2023/12/04 05:00:17;;;;;;;6.25;5.65;;;23.80;64.20;;;;;;6229666;28;89091;-63
2023/12/04 05:03:18;;;;;;;5.88;5.28;;;23.80;64.10;;;;;;6212819;28;90153;-63
2023/12/04 05:06:22;;;;;;;5.75;5.25;;;23.80;64.10;;;;;;6216411;28;89619;-63
2023/12/04 05:09:24;;;;;;;6.00;5.40;;;23.80;64.10;;;;;;6207838;28;89366;-63
2023/12/04 05:12:27;;;;;;;6.85;5.60;;;23.90;64.00;;;;;;6214662;28;89063;-63
2023/12/04 05:15:29;;;;;;;6.22;5.63;;;23.80;64.00;;;;;;6211121;28;89077;-63
2023/12/04 05:18:32;;;;;;;5.45;4.95;;;23.80;64.00;;;;;;6202345;28;89089;-63
2023/12/04 05:21:33;;;;;;;8.10;5.68;;;23.80;63.90;;;;;;6211788;28;89219;-63
2023/12/04 05:24:36;;;;;;;7.78;5.78;;;23.90;64.00;;;;;;6220829;28;88379;-63
2023/12/04 05:27:39;;;;;;;5.68;5.18;;;23.90;64.00;;;;;;6224318;28;87942;-63
2023/12/04 05:30:41;;;;;;;5.57;5.07;;;23.90;64.00;;;;;;6215504;28;87984;-63
2023/12/04 05:33:43;;;;;;;5.65;5.15;;;23.90;63.90;;;;;;6212604;28;90005;-63
2023/12/04 05:36:45;;;;;;;5.28;4.78;;;23.90;63.90;;;;;;6226970;28;89099;-63
2023/12/04 05:39:47;;;;;;;5.65;5.13;;;23.90;63.90;;;;;;6222433;28;87872;-63
2023/12/04 05:42:50;;;;;;;6.47;5.43;;;23.90;63.90;;;;;;6228032;28;89778;-63
2023/12/04 05:45:52;;;;;;;5.43;4.93;;;23.90;63.90;;;;;;6219712;28;89083;-63
2023/12/04 05:48:54;;;;;;;4.93;4.50;;;23.90;64.00;;;;;;6228973;28;89201;-63
2023/12/04 05:51:56;;;;;;;5.40;4.90;;;23.80;64.00;;;;;;6230109;28;87962;-63
2023/12/04 05:54:58;;;;;;;5.32;4.82;;;23.80;64.00;;;;;;6210005;28;88335;-63
2023/12/04 05:58:02;;;;;;;5.28;4.78;;;23.80;64.00;;;;;;6222136;28;87978;-63
2023/12/04 06:01:06;;;;;;;5.00;4.60;;;23.80;64.10;;;;;;6216572;28;88601;-63
2023/12/04 06:04:08;;;;;;;5.78;5.00;;;23.80;64.10;;;;;;6225752;28;88924;-63
2023/12/04 06:07:10;;;;;;;6.00;5.25;;;23.80;64.20;;;;;;6209304;28;89352;-63
2023/12/04 06:10:12;;;;;;;5.18;4.68;;;23.70;64.20;;;;;;6220444;28;87990;-63
2023/12/04 06:13:15;;;;;;;5.00;4.60;;;23.70;64.20;;;;;;6233699;28;89135;-63
2023/12/04 06:16:17;;;;;;;5.38;4.88;;;23.70;64.20;;;;;;6229390;28;87949;-63
2023/12/04 06:19:19;;;;;;;5.20;4.70;;;23.70;64.20;;;;;;6182429;28;89008;-63
2023/12/04 06:22:22;;;;;;;5.20;4.70;;;23.70;64.20;;;;;;6233737;28;89550;-63
2023/12/04 06:25:25;;;;;;;5.13;4.63;;;23.70;64.20;;;;;;6210100;28;87617;-63
2023/12/04 06:28:29;;;;;;;5.18;4.47;;;23.70;64.20;;;;;;6227167;28;87940;-63
2023/12/04 06:31:31;;;;;;;5.00;4.50;;;23.70;64.30;;;;;;6231621;28;88048;-63
2023/12/04 06:34:34;;;;;;;5.55;4.95;;;23.70;64.30;;;;;;6230172;28;90039;-63
2023/12/04 06:37:38;;;;;;;5.15;4.65;;;23.70;64.30;;;;;;6230226;28;88965;-63
2023/12/04 06:40:41;;;;;;;5.47;4.70;;;23.60;64.30;;;;;;6223224;28;89054;-63
2023/12/04 06:43:45;;;;;;;5.25;4.75;;;23.60;64.30;;;;;;6221255;28;87867;-63
2023/12/04 06:46:50;;;;;;;5.32;4.82;;;23.70;64.30;;;;;;6232990;28;89473;-63
2023/12/04 06:49:52;;;;;;;5.43;4.35;;;23.70;64.20;;;;;;6227494;28;89481;-63
2023/12/04 06:52:54;;;;;;;4.45;4.05;;;23.70;64.20;;;;;;6228221;28;89076;-63
2023/12/04 06:55:56;;;;;;;4.90;4.47;;;23.70;64.20;;;;;;6209123;28;88285;-63
2023/12/04 06:58:59;;;;;;;6.32;5.03;;;23.70;64.20;;;;;;6225437;28;89128;-63
2023/12/04 07:02:01;;;;;;;6.40;4.95;;;23.70;64.10;;;;;;6230971;28;88842;-63
2023/12/04 07:05:03;;;;;;;5.38;4.88;;;23.70;64.00;;;;;;6226107;28;90434;-63
2023/12/04 07:08:05;;;;;;;5.22;4.68;;;23.70;64.00;;;;;;6222822;28;88005;-63
2023/12/04 07:11:08;;;;;;;6.28;5.25;;;23.70;63.90;;;;;;6232401;28;87968;-63
2023/12/04 07:14:12;;;;;;;5.05;4.60;;;23.80;64.00;;;;;;6222740;28;87949;-63
2023/12/04 07:17:14;;;;;;;5.35;4.85;;;23.80;63.80;;;;;;6227491;28;89106;-63
2023/12/04 07:20:16;;;;;;;4.78;4.32;;;23.80;63.80;;;;;;6223256;28;89065;-63
2023/12/04 07:23:18;;;;;;;5.55;4.72;;;23.80;63.80;;;;;;6224525;28;89138;-63
2023/12/04 07:26:20;;;;;;;4.90;4.13;;;23.80;63.70;;;;;;6230860;28;88361;-63
2023/12/04 07:29:23;;;;;;;5.40;4.40;;;23.80;63.70;;;;;;6222588;28;88846;-63
2023/12/04 07:32:25;;;;;;;5.03;4.53;;;23.80;63.70;;;;;;6206753;28;89377;-63
2023/12/04 07:35:27;;;;;;;4.80;4.35;;;23.90;63.70;;;;;;6214248;28;90056;-63
2023/12/04 07:38:29;;;;;;;5.38;4.75;;;23.90;63.70;;;;;;6222309;28;88749;-62
2023/12/04 07:41:31;;;;;;;5.95;4.90;;;23.80;63.60;;;;;;6234328;28;89103;-63
2023/12/04 07:44:35;;;;;;;5.90;4.78;;;23.90;63.60;;;;;;6233983;28;89523;-63
2023/12/04 07:47:37;;;;;;;4.82;4.43;;;23.80;63.50;;;;;;6229570;28;89085;-62
2023/12/04 07:50:39;;;;;;;4.78;4.38;;;23.90;63.50;;;;;;6215799;28;89076;-63
2023/12/04 07:53:41;;;;;;;4.93;4.50;;;23.90;63.60;;;;;;6212470;28;89234;-63
2023/12/04 07:56:43;;;;;;;5.30;4.80;;;23.90;63.60;;;;;;6209836;28;88434;-63
2023/12/04 07:59:46;;;;;;;7.68;5.40;;;23.90;63.60;;;;;;6226463;28;88174;-63
2023/12/04 08:02:48;;;;;;;5.35;4.50;;;23.90;63.50;;;;;;6212279;28;89129;-63
2023/12/04 08:05:50;;;;;;;4.70;4.30;;;23.90;63.50;;;;;;6215816;28;90043;-63
2023/12/04 08:08:52;;;;;;;4.72;4.32;;;23.90;63.50;;;;;;6225757;28;89057;-63
2023/12/04 08:11:54;;;;;;;5.00;4.55;;;23.90;63.50;;;;;;6232490;28;89231;-63
2023/12/04 08:14:58;;;;;;;6.13;4.95;;;23.90;63.50;;;;;;6228930;28;88216;-63
2023/12/04 08:18:00;;;;;;;4.75;4.22;;;23.90;63.50;;;;;;6217212;28;89142;-62
2023/12/04 08:21:02;;;;;;;5.40;4.60;;;24.00;63.50;;;;;;6222996;28;88980;-63
2023/12/04 08:24:04;;;;;;;5.22;4.72;;;24.00;63.50;;;;;;6230585;28;87995;-63
2023/12/04 08:27:07;;;;;;;4.93;4.43;;;24.00;63.50;;;;;;6220334;28;89332;-63
2023/12/04 08:30:11;;;;;;;4.90;4.40;;;24.00;63.50;;;;;;6219372;28;89157;-63
2023/12/04 08:33:13;;;;;;;4.95;4.45;;;24.00;63.50;;;;;;6205209;28;88969;-63
2023/12/04 08:36:15;;;;;;;4.57;4.18;;;24.00;63.40;;;;;;6223762;28;89985;-63
2023/12/04 08:39:17;;;;;;;4.60;4.20;;;24.00;63.50;;;;;;6223713;28;89039;-63
2023/12/04 08:42:19;;;;;;;5.40;4.43;;;24.00;63.40;;;;;;6228909;28;89197;-63
2023/12/04 08:45:22;;;;;;;6.38;4.90;;;24.10;63.30;;;;;;6229707;28;89359;-63
2023/12/04 08:48:24;;;;;;;4.68;4.28;;;24.00;63.20;;;;;;6239721;28;89078;-63
2023/12/04 08:51:26;;;;;;;6.68;4.80;;;24.10;63.30;;;;;;6215486;28;89149;-63
2023/12/04 08:54:28;;;;;;;4.90;4.40;;;24.00;63.20;;;;;;6206913;28;89086;-63
2023/12/04 08:57:30;;;;;;;4.65;4.18;;;24.10;63.30;;;;;;6214128;28;88370;-63
2023/12/04 09:00:35;;;;;;;5.35;4.47;;;24.00;63.20;;;;;;6221653;28;89078;-63
2023/12/04 09:03:37;;;;;;;6.72;4.63;;;24.10;63.20;;;;;;6237961;28;89100;-63
2023/12/04 09:06:39;;;;;;;4.40;4.00;;;24.10;63.20;;;;;;6229465;28;89943;-63
2023/12/04 09:09:41;;;;;;;4.40;4.00;;;24.10;63.20;;;;;;6232359;28;90184;-63
2023/12/04 09:12:43;;;;;;;4.38;3.97;;;24.10;63.30;;;;;;6213239;28;89070;-63
2023/12/04 09:15:47;;;;;;;4.38;3.97;;;24.10;63.30;;;;;;6217070;28;89112;-63
2023/12/04 09:18:49;;;;;;;4.20;3.80;;;24.10;63.30;;;;;;6219821;28;89131;-63
2023/12/04 09:21:51;;;;;;;4.80;4.13;;;24.10;63.30;;;;;;6235269;28;89061;-63
2023/12/04 09:24:53;;;;;;;4.30;3.90;;;24.10;63.30;;;;;;6213733;28;89107;-63
2023/12/04 09:27:55;;;;;;;4.47;4.07;;;24.10;63.30;;;;;;6210224;28;88395;-63
2023/12/04 09:30:58;;;;;;;4.13;3.72;;;24.10;63.30;;;;;;6209815;28;89194;-63
2023/12/04 09:34:00;;;;;;;6.15;4.45;;;24.10;63.30;;;;;;6210632;28;89035;-63
2023/12/04 09:37:02;;;;;;;6.20;4.30;;;24.10;63.30;;;;;;6210039;28;90314;-63
2023/12/04 09:40:05;;;;;;;4.03;3.60;;;24.10;63.30;;;;;;6215911;28;89100;-63
2023/12/04 09:43:07;;;;;;;4.13;3.72;;;24.10;63.30;;;;;;6221836;28;88971;-63
2023/12/04 09:46:11;;;;;;;4.60;3.95;;;24.20;63.50;;;;;;6213845;28;89035;-63
2023/12/04 09:49:14;;;;;;;4.50;4.10;;;24.20;63.40;;;;;;6224832;28;89046;-63
2023/12/04 09:52:17;;;;;;;4.30;3.88;;;24.20;63.50;;;;;;6217159;28;88940;-63
2023/12/04 09:55:20;;;;;;;4.15;3.75;;;24.20;63.40;;;;;;6220717;28;89097;-63
2023/12/04 09:58:24;;;;;;;6.13;4.20;;;24.10;63.40;;;;;;6229642;28;88658;-63
2023/12/04 10:01:31;;;;;;;4.72;3.75;;;24.20;63.50;;;;;;6214470;28;88840;-63
2023/12/04 10:04:34;;;;;;;4.85;3.90;;;24.20;63.40;;;;;;6213195;28;89137;-63
2023/12/04 10:07:36;;;;;;;4.55;3.90;;;24.20;63.50;;;;;;6228988;28;90114;-63
2023/12/04 10:10:38;;;;;;;4.50;4.10;;;24.20;63.40;;;;;;6233773;28;89088;-63
2023/12/04 10:13:42;;;;;;;4.93;4.43;;;24.20;63.40;;;;;;6218383;28;89053;-63
2023/12/04 10:16:46;;;;;;;4.82;4.25;;;24.20;63.50;;;;;;6212926;28;89514;-63
2023/12/04 10:19:48;;;;;;;5.45;4.72;;;24.20;63.50;;;;;;6210702;28;89008;-63
2023/12/04 10:22:54;;;;;;;7.78;5.53;;;24.20;63.50;;;;;;6223893;28;89211;-63
2023/12/04 10:25:56;;;;;;;7.03;5.85;;;24.20;63.50;;;;;;6243302;28;89018;-63
2023/12/04 10:29:03;;;;;;;6.70;6.00;;;24.20;63.50;;;;;;6232806;28;88133;-63
2023/12/04 10:32:06;;;;;;;6.38;5.75;;;24.20;63.60;;;;;;6224221;28;89028;-63
2023/12/04 10:35:09;;;;;;;7.68;6.60;;;24.20;63.60;;;;;;6231790;28;89077;-63
2023/12/04 10:38:14;;;;;;;7.70;6.90;;;24.20;63.60;;;;;;6222801;28;89941;-63
2023/12/04 10:41:16;;;;;;;8.82;7.30;;;24.20;63.60;;;;;;6216507;28;89010;-63
2023/12/04 10:44:18;;;;;;;8.38;7.35;;;24.20;63.60;;;;;;6225931;28;89434;-63
2023/12/04 10:47:24;;;;;;;10.20;8.65;;;24.30;63.70;;;;;;6230809;28;88273;-63
2023/12/04 10:50:26;;;;;;;10.95;8.75;;;24.30;63.70;;;;;;6222628;28;89433;-63
2023/12/04 10:53:28;;;;;;;11.55;8.90;;;24.20;63.60;;;;;;6223525;28;89094;-63
2023/12/04 10:56:34;;;;;;;11.55;8.98;;;24.30;63.70;;;;;;6224429;28;89678;-63
2023/12/04 10:59:39;;;;;;;12.80;9.32;;;24.30;63.70;;;;;;6219334;28;88277;-63
2023/12/04 11:02:48;;;;;;;11.18;9.73;;;24.30;63.70;;;;;;6204003;28;89076;-63
2023/12/04 11:05:59;;;;;;;13.35;9.82;;;24.30;63.70;;;;;;6195950;28;89148;-63
2023/12/04 11:09:02;;;;;;;12.10;9.57;;;24.30;63.80;;;;;;6195303;28;91616;-63
2023/12/04 11:12:09;;;;;;;12.95;9.93;;;24.30;63.70;;;;;;6200795;28;89037;-63
2023/12/04 11:15:16;;;;;;;15.40;11.00;;;24.30;63.80;;;;;;6199436;28;89230;-63
2023/12/04 11:18:24;;;;;;;14.32;10.30;;;24.30;63.80;;;;;;6209425;28;89078;-63
2023/12/04 11:21:27;;;;;;;13.60;10.35;;;24.20;63.80;;;;;;6195636;28;89403;-63
2023/12/04 11:24:29;;;;;;;15.77;11.00;;;24.20;63.80;;;;;;6208801;28;89104;-63
2023/12/04 11:27:32;;;;;;;15.63;11.13;;;24.20;63.80;;;;;;6187857;28;89030;-63
2023/12/04 11:30:36;;;;;;;16.88;10.98;;;24.30;63.80;;;;;;6202043;28;87248;-63
2023/12/04 11:33:40;;;;;;;16.08;11.32;;;24.30;63.80;;;;;;6215189;28;90801;-63
2023/12/04 11:36:43;;;;;;;15.45;11.02;;;24.30;63.80;;;;;;6206222;28;89432;-63
2023/12/04 11:39:48;;;;;;;15.43;11.45;;;24.30;63.80;;;;;;6207774;28;89102;-63
2023/12/04 11:42:50;;;;;;;14.45;10.82;;;24.30;63.80;;;;;;6216337;28;89131;-63
2023/12/04 11:45:52;;;;;;;14.02;10.35;;;24.30;63.80;;;;;;6224544;28;89347;-63
2023/12/04 11:48:57;;;;;;;14.55;11.25;;;24.30;63.80;;;;;;6229946;28;89137;-63
2023/12/04 11:52:01;;;;;;;13.15;10.63;;;24.30;63.80;;;;;;6243938;28;89065;-63
2023/12/04 11:55:05;;;;;;;13.63;10.18;;;24.30;63.80;;;;;;6212878;28;89002;-63
2023/12/04 11:58:10;;;;;;;17.52;11.50;;;24.20;63.80;;;;;;6220074;28;89046;-62
2023/12/04 12:01:13;;;;;;;17.77;11.07;;;24.30;63.80;;;;;;6213166;28;88602;-63
2023/12/04 12:04:17;;;;;;;13.23;10.23;;;24.30;63.90;;;;;;6219260;28;89360;-63
2023/12/04 12:07:19;;;;;;;14.38;10.60;;;24.30;63.90;;;;;;6225285;28;89113;-63
2023/12/04 12:10:21;;;;;;;13.70;10.77;;;24.30;63.90;;;;;;6223185;28;90043;-63
2023/12/04 12:13:25;;;;;;;13.80;10.57;;;24.30;63.90;;;;;;6226676;28;88766;-64
2023/12/04 12:16:27;;;;;;;14.10;10.55;;;24.30;64.00;;;;;;6224391;28;89125;-63
2023/12/04 12:19:30;;;;;;;14.73;10.38;;;24.30;64.10;;;;;;6224203;28;89056;-63
2023/12/04 12:22:32;;;;;;;15.68;10.80;;;24.30;64.20;;;;;;6220021;28;89093;-63
2023/12/04 12:25:35;;;;;;;12.40;10.10;;;24.30;64.30;;;;;;6214998;28;89310;-63
2023/12/04 12:29:19;;;;;;;13.90;9.93;;;24.30;64.40;;;;;;6242299;28;89107;-63
2023/12/04 12:32:22;;;;;;;14.57;9.80;;;24.30;64.50;;;;;;6223888;28;88389;-63
2023/12/04 12:35:26;;;;;;;15.10;10.60;;;24.20;64.50;;;;;;6216836;28;89994;-63
2023/12/04 12:38:29;;;;;;;13.52;9.95;;;24.20;64.50;;;;;;6229014;28;89114;-63
2023/12/04 12:41:31;;;;;;;14.35;10.20;;;24.20;64.60;;;;;;6222934;28;89691;-63
2023/12/04 12:44:40;;;;;;;12.75;9.30;;;24.20;64.70;;;;;;6207794;28;89096;-63
2023/12/04 12:47:43;;;;;;;12.68;9.02;;;24.20;64.70;;;;;;6217619;28;87955;-63
2023/12/04 12:50:48;;;;;;;12.10;9.32;;;24.20;64.70;;;;;;6221523;28;89105;-63
2023/12/04 12:53:49;;;;;;;11.73;9.27;;;24.20;64.80;;;;;;6214514;28;89088;-63
2023/12/04 12:56:52;;;;;;;10.98;8.60;;;24.20;64.90;;;;;;6220741;28;89509;-63
2023/12/04 12:59:54;;;;;;;14.15;9.38;;;24.20;65.10;;;;;;6211884;28;89120;-63
2023/12/04 13:02:56;;;;;;;15.30;9.98;;;24.20;65.40;;;;;;6214883;28;88716;-63
2023/12/04 13:05:59;;;;;;;21.67;11.43;;;24.20;65.90;;;;;;6218346;28;89146;-63
2023/12/04 13:09:01;;;;;;;18.13;10.80;;;24.20;66.30;;;;;;6221738;28;89503;-63
2023/12/04 13:12:04;;;;;;;14.25;9.13;;;24.10;66.50;;;;;;6221465;28;90182;-62
2023/12/04 13:15:07;;;;;;;16.10;9.68;;;24.20;65.70;;;;;;6216371;28;89346;-60
2023/12/04 13:18:09;;;;;;;19.20;11.30;;;24.10;64.90;;;;;;6225196;28;89346;-62
2023/12/04 13:21:25;;;;;;;15.18;9.80;;;24.10;65.00;;;;;;6219122;28;89134;-62
2023/12/04 13:24:27;;;;;;;15.73;10.55;;;24.00;65.10;;;;;;6218529;28;89056;-62
2023/12/04 13:27:29;;;;;;;16.40;10.63;;;24.10;65.40;;;;;;6220586;28;89143;-63
2023/12/04 13:30:33;;;;;;;15.55;10.57;;;24.10;65.50;;;;;;6225687;28;89033;-62
2023/12/04 13:33:35;;;;;;;16.80;10.80;;;24.00;65.60;;;;;;6217747;28;88392;-63
2023/12/04 13:36:38;;;;;;;14.38;11.07;;;24.00;65.80;;;;;;6225721;28;89136;-62
2023/12/04 13:39:48;;;;;;;16.90;10.95;;;24.00;65.90;;;;;;6210090;28;89083;-63
2023/12/04 13:46:10;;;;;;;14.68;11.57;;;24.00;66.30;;;;;;6212554;28;87162;-61
2023/12/04 13:49:12;;;;;;;15.57;11.35;;;24.00;66.50;;;;;;6222254;28;89640;-62
2023/12/04 13:52:20;;;;;;;16.45;11.88;;;24.00;66.60;;;;;;6222804;28;88599;-62
2023/12/04 13:55:36;;;;;;;13.32;11.55;;;24.00;66.40;;;;;;6217279;28;89045;-62
2023/12/04 13:58:40;;;;;;;16.52;11.57;;;24.00;66.40;;;;;;6218137;28;89207;-62
2023/12/04 14:01:42;;;;;;;15.25;11.48;;;24.00;66.50;;;;;;6229334;28;89108;-61
2023/12/04 14:04:44;;;;;;;15.20;11.77;;;24.00;66.60;;;;;;6214029;28;88007;-62
2023/12/04 14:07:48;;;;;;;16.55;12.25;;;24.00;66.60;;;;;;6219298;28;89145;-62
2023/12/04 14:10:50;;;;;;;14.25;11.60;;;24.00;66.60;;;;;;6225582;28;89357;-61
2023/12/04 14:13:52;;;;;;;14.55;11.32;;;24.00;66.60;;;;;;6221267;28;90101;-61
2023/12/04 14:16:54;;;;;;;13.40;11.30;;;24.00;66.60;;;;;;6216108;28;89058;-61
2023/12/04 14:19:56;;;;;;;13.52;11.80;;;24.00;66.60;;;;;;6223305;28;88231;-62
2023/12/04 14:22:59;;;;;;;12.90;11.25;;;24.00;66.60;;;;;;6213373;28;89042;-61
2023/12/04 14:26:01;;;;;;;13.85;11.65;;;24.00;66.60;;;;;;6218299;28;89152;-61
2023/12/04 14:29:03;;;;;;;14.43;11.82;;;24.00;66.60;;;;;;6219894;28;89016;-61
2023/12/04 14:32:06;;;;;;;14.75;11.45;;;23.90;66.60;;;;;;6207480;28;88095;-62
2023/12/04 14:35:09;;;;;;;12.90;11.27;;;24.00;66.60;;;;;;6198946;28;88652;-62
2023/12/04 14:38:12;;;;;;;13.48;11.57;;;24.00;66.60;;;;;;6229530;28;89084;-62
2023/12/04 14:41:16;;;;;;;12.70;11.05;;;23.90;66.60;;;;;;6228141;28;89159;-61
2023/12/04 14:44:18;;;;;;;12.85;11.32;;;24.00;66.70;;;;;;6225231;28;90055;-62
2023/12/04 14:47:20;;;;;;;12.88;11.02;;;24.00;66.70;;;;;;6228777;28;89043;-62
2023/12/04 14:50:23;;;;;;;13.10;11.00;;;24.00;66.70;;;;;;6217073;28;89006;-61
2023/12/04 14:53:30;;;;;;;14.90;11.45;;;23.90;66.60;;;;;;6211875;28;89134;-62
2023/12/04 15:04:00;;;;;;;12.48;11.02;;;24.00;66.70;;;;;;6221316;28;88524;-62
2023/12/04 15:07:15;;;;;;;16.15;11.43;;;23.90;66.70;;;;;;6224058;28;87452;-62
2023/12/04 15:13:56;;;;;;;12.88;10.90;;;23.90;66.70;;;;;;6222635;28;88590;-62
2023/12/04 15:17:13;;;;;;;12.10;10.90;;;23.90;66.80;;;;;;6215593;28;90443;-62
2023/12/04 15:20:32;;;;;;;12.32;10.82;;;23.90;66.80;;;;;;6216274;28;89200;-62
2023/12/04 15:23:35;;;;;;;12.05;10.85;;;23.90;66.90;;;;;;6226859;28;88004;-62
2023/12/04 15:26:38;;;;;;;12.20;10.90;;;23.90;66.90;;;;;;6239178;28;89149;-62
2023/12/04 15:29:40;;;;;;;12.18;10.98;;;23.90;66.90;;;;;;6224599;28;89095;-62
2023/12/04 15:32:41;;;;;;;11.80;10.60;;;23.90;66.90;;;;;;6217356;28;89477;-62
2023/12/04 15:35:46;;;;;;;12.40;11.10;;;23.90;66.90;;;;;;6210686;28;89137;-62
2023/12/04 15:38:47;;;;;;;12.82;11.45;;;23.90;67.00;;;;;;6218834;28;88418;-62
2023/12/04 15:41:51;;;;;;;15.13;12.00;;;23.90;67.00;;;;;;6220144;28;89034;-61
2023/12/04 15:44:53;;;;;;;13.70;11.38;;;23.90;67.00;;;;;;6228106;28;89430;-61
2023/12/04 15:47:55;;;;;;;13.27;11.18;;;23.90;67.00;;;;;;6228720;28;88908;-61
2023/12/04 15:50:57;;;;;;;12.10;10.82;;;23.90;67.00;;;;;;6238339;28;89161;-62
2023/12/04 15:53:59;;;;;;;13.25;10.73;;;23.90;67.00;;;;;;6223422;28;89014;-62
2023/12/04 15:57:01;;;;;;;12.15;10.85;;;23.90;67.00;;;;;;6211785;28;89179;-61